sensor_id;sensor_type;location;lat;lon;timestamp;P1;P2;P0
62599;PMS7003;48671;48.922;2.346;2023-05-18T00:02:01;83.67;65.00;50.00
62599;PMS7003;48671;48.922;2.346;2023-05-18T00:04:28;88.33;72.67;58.33
62599;PMS7003;48671;48.922;2.346;2023-05-18T00:06:58;81.67;61.00;45.67
62599;PMS7003;48671;48.922;2.346;2023-05-18T00:09:27;81.33;59.67;44.33
62599;PMS7003;48671;48.922;2.346;2023-05-18T00:11:54;67.67;49.00;32.00
62599;PMS7003;48671;48.922;2.346;2023-05-18T00:14:20;73.33;53.33;37.67
62599;PMS7003;48671;48.922;2.346;2023-05-18T00:16:46;60.00;41.33;24.33
62599;PMS7003;48671;48.922;2.346;2023-05-18T00:19:12;66.25;47.00;30.00
62599;PMS7003;48671;48.922;2.346;2023-05-18T00:21:41;55.80;36.60;16.40
62599;PMS7003;48671;48.922;2.346;2023-05-18T00:24:07;53.00;34.80;14.40
62599;PMS7003;48671;48.922;2.346;2023-05-18T00:26:35;51.00;32.20;13.20
62599;PMS7003;48671;48.922;2.346;2023-05-18T00:29:01;58.00;39.20;21.20
62599;PMS7003;48671;48.922;2.346;2023-05-18T00:31:27;52.50;30.25;7.50
62599;PMS7003;48671;48.922;2.346;2023-05-18T00:33:52;46.75;29.00;8.00
62599;PMS7003;48671;48.922;2.346;2023-05-18T00:36:17;58.75;40.00;22.00
62599;PMS7003;48671;48.922;2.346;2023-05-18T00:38:42;50.75;29.50;9.50
62599;PMS7003;48671;48.922;2.346;2023-05-18T00:41:08;41.50;20.00;0.00
62599;PMS7003;48671;48.922;2.346;2023-05-18T00:43:33;55.25;35.75;15.50
62599;PMS7003;48671;48.922;2.346;2023-05-18T00:45:59;41.00;23.00;2.33
62599;PMS7003;48671;48.922;2.346;2023-05-18T00:48:24;49.33;29.33;4.00
62599;PMS7003;48671;48.922;2.346;2023-05-18T00:50:49;78.25;56.75;38.75
62599;PMS7003;48671;48.922;2.346;2023-05-18T00:53:15;42.75;22.25;1.75
62599;PMS7003;48671;48.922;2.346;2023-05-18T00:55:40;53.00;34.25;10.75
62599;PMS7003;48671;48.922;2.346;2023-05-18T00:58:06;79.33;59.00;40.33
62599;PMS7003;48671;48.922;2.346;2023-05-18T01:00:32;66.50;48.25;30.50
62599;PMS7003;48671;48.922;2.346;2023-05-18T01:02:57;80.33;59.67;40.00
62599;PMS7003;48671;48.922;2.346;2023-05-18T01:05:23;79.25;58.25;40.00
62599;PMS7003;48671;48.922;2.346;2023-05-18T01:07:49;81.33;60.67;45.00
62599;PMS7003;48671;48.922;2.346;2023-05-18T01:10:15;79.00;58.67;40.00
62599;PMS7003;48671;48.922;2.346;2023-05-18T01:12:44;95.33;82.67;66.00
62599;PMS7003;48671;48.922;2.346;2023-05-18T01:15:18;80.33;60.00;44.33
62599;PMS7003;48671;48.922;2.346;2023-05-18T01:20:30;85.33;66.00;50.67
62599;PMS7003;48671;48.922;2.346;2023-05-18T01:26:11;105.33;94.00;78.00
62599;PMS7003;48671;48.922;2.346;2023-05-18T01:29:02;102.33;89.33;73.33
62599;PMS7003;48671;48.922;2.346;2023-05-18T01:31:30;118.33;106.00;88.00
62599;PMS7003;48671;48.922;2.346;2023-05-18T01:33:56;114.33;99.33;82.67
62599;PMS7003;48671;48.922;2.346;2023-05-18T01:36:21;116.00;102.33;86.33
62599;PMS7003;48671;48.922;2.346;2023-05-18T01:38:46;99.67;86.67;69.33
62599;PMS7003;48671;48.922;2.346;2023-05-18T01:41:28;111.67;98.33;79.33
62599;PMS7003;48671;48.922;2.346;2023-05-18T01:44:08;103.00;91.00;76.00
62599;PMS7003;48671;48.922;2.346;2023-05-18T01:49:37;91.67;71.67;57.33
62599;PMS7003;48671;48.922;2.346;2023-05-18T01:52:06;95.00;79.25;65.50
62599;PMS7003;48671;48.922;2.346;2023-05-18T01:54:36;85.25;62.75;48.00
62599;PMS7003;48671;48.922;2.346;2023-05-18T01:57:05;86.50;63.75;50.25
62599;PMS7003;48671;48.922;2.346;2023-05-18T01:59:33;84.00;61.00;44.75
62599;PMS7003;48671;48.922;2.346;2023-05-18T02:02:00;83.00;60.75;46.25
62599;PMS7003;48671;48.922;2.346;2023-05-18T02:04:27;83.25;61.00;45.25
62599;PMS7003;48671;48.922;2.346;2023-05-18T02:06:52;83.75;61.75;42.25
62599;PMS7003;48671;48.922;2.346;2023-05-18T02:09:18;85.00;62.25;46.50
62599;PMS7003;48671;48.922;2.346;2023-05-18T02:11:45;84.50;63.00;46.75
62599;PMS7003;48671;48.922;2.346;2023-05-18T02:14:10;82.75;61.50;45.00
62599;PMS7003;48671;48.922;2.346;2023-05-18T02:16:36;84.00;61.00;44.50
62599;PMS7003;48671;48.922;2.346;2023-05-18T02:19:01;80.25;60.25;42.00
62599;PMS7003;48671;48.922;2.346;2023-05-18T02:21:27;84.00;62.33;46.67
62599;PMS7003;48671;48.922;2.346;2023-05-18T02:23:52;79.25;57.00;40.25
62599;PMS7003;48671;48.922;2.346;2023-05-18T02:26:18;82.75;60.50;44.25
62599;PMS7003;48671;48.922;2.346;2023-05-18T02:28:43;84.25;62.00;46.00
62599;PMS7003;48671;48.922;2.346;2023-05-18T02:31:09;84.00;61.67;46.00
62599;PMS7003;48671;48.922;2.346;2023-05-18T02:33:38;86.00;62.50;49.50
62599;PMS7003;48671;48.922;2.346;2023-05-18T02:36:11;82.50;60.75;42.75
62599;PMS7003;48671;48.922;2.346;2023-05-18T02:38:38;80.00;58.67;41.67
62599;PMS7003;48671;48.922;2.346;2023-05-18T02:41:05;82.25;60.25;42.00
62599;PMS7003;48671;48.922;2.346;2023-05-18T02:43:30;84.67;61.33;47.33
62599;PMS7003;48671;48.922;2.346;2023-05-18T02:45:56;92.25;74.00;60.75
62599;PMS7003;48671;48.922;2.346;2023-05-18T02:48:21;82.00;60.67;44.33
62599;PMS7003;48671;48.922;2.346;2023-05-18T02:50:47;81.25;59.00;42.75
62599;PMS7003;48671;48.922;2.346;2023-05-18T02:53:13;86.25;64.25;53.00
62599;PMS7003;48671;48.922;2.346;2023-05-18T02:55:38;81.67;59.00;42.33
62599;PMS7003;48671;48.922;2.346;2023-05-18T02:58:04;83.00;61.00;44.50
62599;PMS7003;48671;48.922;2.346;2023-05-18T03:00:30;78.50;57.75;40.50
62599;PMS7003;48671;48.922;2.346;2023-05-18T03:02:55;82.00;59.75;43.50
62599;PMS7003;48671;48.922;2.346;2023-05-18T03:05:21;81.25;59.50;42.50
62599;PMS7003;48671;48.922;2.346;2023-05-18T03:07:48;81.25;61.00;45.75
62599;PMS7003;48671;48.922;2.346;2023-05-18T03:10:17;82.33;60.33;43.00
62599;PMS7003;48671;48.922;2.346;2023-05-18T03:12:43;79.25;58.25;42.25
62599;PMS7003;48671;48.922;2.346;2023-05-18T03:15:08;86.00;63.33;48.67
62599;PMS7003;48671;48.922;2.346;2023-05-18T03:17:35;81.33;59.33;42.67
62599;PMS7003;48671;48.922;2.346;2023-05-18T03:20:01;76.33;55.67;40.33
62599;PMS7003;48671;48.922;2.346;2023-05-18T03:22:26;80.00;58.67;42.33
62599;PMS7003;48671;48.922;2.346;2023-05-18T03:24:52;81.67;60.00;44.67
62599;PMS7003;48671;48.922;2.346;2023-05-18T03:27:19;81.67;58.33;42.33
62599;PMS7003;48671;48.922;2.346;2023-05-18T03:29:49;79.50;57.25;41.25
62599;PMS7003;48671;48.922;2.346;2023-05-18T03:32:17;85.00;63.00;49.67
62599;PMS7003;48671;48.922;2.346;2023-05-18T03:34:43;84.25;62.50;48.00
62599;PMS7003;48671;48.922;2.346;2023-05-18T03:37:09;81.67;60.67;44.00
62599;PMS7003;48671;48.922;2.346;2023-05-18T03:39:34;87.33;63.33;52.00
62599;PMS7003;48671;48.922;2.346;2023-05-18T03:42:00;80.67;59.00;42.67
62599;PMS7003;48671;48.922;2.346;2023-05-18T03:44:25;81.00;59.00;45.00
62599;PMS7003;48671;48.922;2.346;2023-05-18T03:46:51;78.67;54.67;39.67
62599;PMS7003;48671;48.922;2.346;2023-05-18T03:49:16;81.67;59.00;42.33
62599;PMS7003;48671;48.922;2.346;2023-05-18T03:51:41;83.67;60.33;45.67
62599;PMS7003;48671;48.922;2.346;2023-05-18T03:54:07;83.00;61.67;47.67
62599;PMS7003;48671;48.922;2.346;2023-05-18T03:56:32;94.33;76.00;64.67
62599;PMS7003;48671;48.922;2.346;2023-05-18T03:58:57;95.67;77.33;68.33
62599;PMS7003;48671;48.922;2.346;2023-05-18T04:01:23;85.67;61.33;48.33
62599;PMS7003;48671;48.922;2.346;2023-05-18T04:03:48;79.67;58.33;42.67
62599;PMS7003;48671;48.922;2.346;2023-05-18T04:06:15;83.67;61.00;47.33
62599;PMS7003;48671;48.922;2.346;2023-05-18T04:08:40;83.67;61.00;45.33
62599;PMS7003;48671;48.922;2.346;2023-05-18T04:11:07;79.67;58.00;43.00
62599;PMS7003;48671;48.922;2.346;2023-05-18T04:13:32;84.67;62.00;49.00
62599;PMS7003;48671;48.922;2.346;2023-05-18T04:15:58;96.67;78.33;68.33
62599;PMS7003;48671;48.922;2.346;2023-05-18T04:18:24;85.67;62.00;49.33
62599;PMS7003;48671;48.922;2.346;2023-05-18T04:20:54;83.00;59.67;44.67
62599;PMS7003;48671;48.922;2.346;2023-05-18T04:23:20;79.25;58.00;42.00
62599;PMS7003;48671;48.922;2.346;2023-05-18T04:25:45;80.67;59.33;42.00
62599;PMS7003;48671;48.922;2.346;2023-05-18T04:28:11;91.33;68.33;59.00
62599;PMS7003;48671;48.922;2.346;2023-05-18T04:30:36;96.67;79.00;68.33
62599;PMS7003;48671;48.922;2.346;2023-05-18T04:33:01;84.33;61.33;47.33
62599;PMS7003;48671;48.922;2.346;2023-05-18T04:35:28;83.67;61.33;45.67
62599;PMS7003;48671;48.922;2.346;2023-05-18T04:37:55;83.33;60.33;46.00
62599;PMS7003;48671;48.922;2.346;2023-05-18T04:40:21;83.33;60.67;44.67
62599;PMS7003;48671;48.922;2.346;2023-05-18T04:42:46;81.33;59.33;43.67
62599;PMS7003;48671;48.922;2.346;2023-05-18T04:45:12;77.67;56.67;41.33
62599;PMS7003;48671;48.922;2.346;2023-05-18T04:47:41;82.33;59.67;46.00
62599;PMS7003;48671;48.922;2.346;2023-05-18T04:50:07;82.33;58.67;43.00
62599;PMS7003;48671;48.922;2.346;2023-05-18T04:52:32;82.33;60.33;43.67
62599;PMS7003;48671;48.922;2.346;2023-05-18T04:55:01;84.67;59.67;44.33
62599;PMS7003;48671;48.922;2.346;2023-05-18T04:57:26;97.67;80.67;67.67
62599;PMS7003;48671;48.922;2.346;2023-05-18T04:59:52;82.67;60.33;45.33
62599;PMS7003;48671;48.922;2.346;2023-05-18T05:02:17;74.67;54.00;39.00
62599;PMS7003;48671;48.922;2.346;2023-05-18T05:04:43;85.33;62.67;50.67
62599;PMS7003;48671;48.922;2.346;2023-05-18T05:07:08;86.33;61.33;46.00
62599;PMS7003;48671;48.922;2.346;2023-05-18T05:09:34;79.33;57.00;41.00
62599;PMS7003;48671;48.922;2.346;2023-05-18T05:11:59;97.33;81.33;70.67
62599;PMS7003;48671;48.922;2.346;2023-05-18T05:14:24;96.00;79.00;65.67
62599;PMS7003;48671;48.922;2.346;2023-05-18T05:16:50;83.00;60.33;44.33
62599;PMS7003;48671;48.922;2.346;2023-05-18T05:19:15;94.67;75.33;64.33
62599;PMS7003;48671;48.922;2.346;2023-05-18T05:21:40;89.33;65.33;53.67
62599;PMS7003;48671;48.922;2.346;2023-05-18T05:24:06;96.33;80.33;70.67
62599;PMS7003;48671;48.922;2.346;2023-05-18T05:26:32;88.00;64.33;55.00
62599;PMS7003;48671;48.922;2.346;2023-05-18T05:28:57;82.00;59.33;43.67
62599;PMS7003;48671;48.922;2.346;2023-05-18T05:31:23;74.50;53.75;37.00
62599;PMS7003;48671;48.922;2.346;2023-05-18T05:33:48;80.00;58.33;42.00
62599;PMS7003;48671;48.922;2.346;2023-05-18T05:36:14;96.00;79.67;69.33
62599;PMS7003;48671;48.922;2.346;2023-05-18T05:38:39;90.67;70.00;58.33
62599;PMS7003;48671;48.922;2.346;2023-05-18T05:41:04;90.67;68.67;58.33
62599;PMS7003;48671;48.922;2.346;2023-05-18T05:43:30;81.67;57.67;42.00
62599;PMS7003;48671;48.922;2.346;2023-05-18T05:45:55;86.00;63.67;49.33
62599;PMS7003;48671;48.922;2.346;2023-05-18T05:48:20;96.67;82.33;69.33
62599;PMS7003;48671;48.922;2.346;2023-05-18T05:50:46;97.33;82.00;71.33
62599;PMS7003;48671;48.922;2.346;2023-05-18T05:53:11;85.67;62.33;46.00
62599;PMS7003;48671;48.922;2.346;2023-05-18T05:55:36;88.67;64.67;50.33
62599;PMS7003;48671;48.922;2.346;2023-05-18T05:58:06;93.75;74.75;63.25
62599;PMS7003;48671;48.922;2.346;2023-05-18T06:00:33;86.33;62.00;45.00
62599;PMS7003;48671;48.922;2.346;2023-05-18T06:02:58;80.67;58.00;41.33
62599;PMS7003;48671;48.922;2.346;2023-05-18T06:05:24;92.25;72.25;59.00
62599;PMS7003;48671;48.922;2.346;2023-05-18T06:07:49;96.00;79.33;68.00
62599;PMS7003;48671;48.922;2.346;2023-05-18T06:10:14;97.00;78.00;65.50
62599;PMS7003;48671;48.922;2.346;2023-05-18T06:12:40;97.67;79.33;64.00
62599;PMS7003;48671;48.922;2.346;2023-05-18T06:15:06;98.50;82.75;68.50
62599;PMS7003;48671;48.922;2.346;2023-05-18T06:17:31;99.67;81.67;67.67
62599;PMS7003;48671;48.922;2.346;2023-05-18T06:19:57;92.33;70.33;53.67
62599;PMS7003;48671;48.922;2.346;2023-05-18T06:22:22;96.75;80.50;63.50
62599;PMS7003;48671;48.922;2.346;2023-05-18T06:24:48;96.25;80.25;64.50
62599;PMS7003;48671;48.922;2.346;2023-05-18T06:27:14;96.50;79.50;60.25
62599;PMS7003;48671;48.922;2.346;2023-05-18T06:29:40;96.33;81.67;63.67
62599;PMS7003;48671;48.922;2.346;2023-05-18T06:32:06;98.33;84.00;63.00
62599;PMS7003;48671;48.922;2.346;2023-05-18T06:34:31;96.00;80.75;59.00
62599;PMS7003;48671;48.922;2.346;2023-05-18T06:36:57;100.25;83.00;62.00
62599;PMS7003;48671;48.922;2.346;2023-05-18T06:39:22;97.50;82.25;61.00
62599;PMS7003;48671;48.922;2.346;2023-05-18T06:41:48;100.50;83.75;61.25
62599;PMS7003;48671;48.922;2.346;2023-05-18T06:44:15;96.25;82.25;61.00
62599;PMS7003;48671;48.922;2.346;2023-05-18T06:46:41;99.50;86.00;61.50
62599;PMS7003;48671;48.922;2.346;2023-05-18T06:49:06;97.00;82.75;62.25
62599;PMS7003;48671;48.922;2.346;2023-05-18T06:51:32;89.75;68.50;47.00
62599;PMS7003;48671;48.922;2.346;2023-05-18T06:53:57;86.50;62.50;39.25
62599;PMS7003;48671;48.922;2.346;2023-05-18T06:56:22;101.00;88.00;63.75
62599;PMS7003;48671;48.922;2.346;2023-05-18T06:58:48;106.33;93.33;70.33
62599;PMS7003;48671;48.922;2.346;2023-05-18T07:01:13;103.50;89.25;63.75
62599;PMS7003;48671;48.922;2.346;2023-05-18T07:03:39;104.50;91.00;64.25
62599;PMS7003;48671;48.922;2.346;2023-05-18T07:06:05;108.00;89.50;62.50
62599;PMS7003;48671;48.922;2.346;2023-05-18T07:08:31;106.50;90.00;63.75
62599;PMS7003;48671;48.922;2.346;2023-05-18T07:10:57;101.25;87.25;63.25
62599;PMS7003;48671;48.922;2.346;2023-05-18T07:13:23;106.50;91.50;62.00
62599;PMS7003;48671;48.922;2.346;2023-05-18T07:15:49;106.00;90.25;63.00
62599;PMS7003;48671;48.922;2.346;2023-05-18T07:18:15;104.00;90.75;62.50
62599;PMS7003;48671;48.922;2.346;2023-05-18T07:20:40;106.25;92.25;64.25
62599;PMS7003;48671;48.922;2.346;2023-05-18T07:23:06;107.25;92.75;63.75
62599;PMS7003;48671;48.922;2.346;2023-05-18T07:25:31;103.50;89.25;57.50
62599;PMS7003;48671;48.922;2.346;2023-05-18T07:27:56;111.75;97.00;68.50
62599;PMS7003;48671;48.922;2.346;2023-05-18T07:30:22;113.33;98.00;71.00
62599;PMS7003;48671;48.922;2.346;2023-05-18T07:32:47;110.75;99.50;67.00
62599;PMS7003;48671;48.922;2.346;2023-05-18T07:35:13;118.00;104.00;74.00
62599;PMS7003;48671;48.922;2.346;2023-05-18T07:37:40;121.00;109.00;75.00
62599;PMS7003;48671;48.922;2.346;2023-05-18T07:40:06;126.00;113.33;79.00
62599;PMS7003;48671;48.922;2.346;2023-05-18T07:42:33;119.67;106.67;71.33
62599;PMS7003;48671;48.922;2.346;2023-05-18T07:44:59;131.00;115.00;81.33
62599;PMS7003;48671;48.922;2.346;2023-05-18T07:47:24;135.67;121.67;86.00
62599;PMS7003;48671;48.922;2.346;2023-05-18T07:49:49;132.67;123.00;88.00
62599;PMS7003;48671;48.922;2.346;2023-05-18T07:52:15;129.00;113.67;78.00
62599;PMS7003;48671;48.922;2.346;2023-05-18T07:54:40;129.00;115.33;78.00
62599;PMS7003;48671;48.922;2.346;2023-05-18T07:57:06;121.33;108.00;71.00
62599;PMS7003;48671;48.922;2.346;2023-05-18T07:59:31;110.33;103.33;65.67
62599;PMS7003;48671;48.922;2.346;2023-05-18T08:01:56;107.67;97.33;59.67
62599;PMS7003;48671;48.922;2.346;2023-05-18T08:04:23;86.67;71.33;38.00
62599;PMS7003;48671;48.922;2.346;2023-05-18T08:06:49;78.75;59.50;30.50
62599;PMS7003;48671;48.922;2.346;2023-05-18T08:09:14;84.00;65.33;33.67
62599;PMS7003;48671;48.922;2.346;2023-05-18T08:11:40;87.33;71.67;35.33
62599;PMS7003;48671;48.922;2.346;2023-05-18T08:14:07;78.75;60.25;27.75
62599;PMS7003;48671;48.922;2.346;2023-05-18T08:16:33;86.25;74.25;39.75
62599;PMS7003;48671;48.922;2.346;2023-05-18T08:19:01;110.75;99.00;60.75
62599;PMS7003;48671;48.922;2.346;2023-05-18T08:21:27;77.00;58.00;34.75
62599;PMS7003;48671;48.922;2.346;2023-05-18T08:23:54;108.00;98.50;62.25
62599;PMS7003;48671;48.922;2.346;2023-05-18T08:26:20;104.25;98.50;59.50
62599;PMS7003;48671;48.922;2.346;2023-05-18T08:28:46;107.00;96.60;61.40
62599;PMS7003;48671;48.922;2.346;2023-05-18T08:31:13;99.25;95.75;65.25
62599;PMS7003;48671;48.922;2.346;2023-05-18T08:33:38;109.75;104.75;73.75
62599;PMS7003;48671;48.922;2.346;2023-05-18T08:36:04;105.75;102.50;69.75
62599;PMS7003;48671;48.922;2.346;2023-05-18T08:38:30;109.75;99.25;64.75
62599;PMS7003;48671;48.922;2.346;2023-05-18T08:43:47;100.50;95.75;62.50
62599;PMS7003;48671;48.922;2.346;2023-05-18T08:46:19;105.75;101.00;69.75
62599;PMS7003;48671;48.922;2.346;2023-05-18T08:48:46;107.25;97.50;68.75
62599;PMS7003;48671;48.922;2.346;2023-05-18T08:51:15;108.50;104.50;76.00
62599;PMS7003;48671;48.922;2.346;2023-05-18T08:53:44;82.20;70.80;44.20
62599;PMS7003;48671;48.922;2.346;2023-05-18T08:56:15;99.00;92.00;65.50
62599;PMS7003;48671;48.922;2.346;2023-05-18T08:58:47;88.60;85.20;57.00
62599;PMS7003;48671;48.922;2.346;2023-05-18T09:01:14;103.75;103.00;75.50
62599;PMS7003;48671;48.922;2.346;2023-05-18T09:03:40;102.25;99.50;72.50
62599;PMS7003;48671;48.922;2.346;2023-05-18T09:06:06;100.50;97.00;72.50
62599;PMS7003;48671;48.922;2.346;2023-05-18T09:08:31;102.75;100.25;66.75
62599;PMS7003;48671;48.922;2.346;2023-05-18T09:11:00;84.25;70.75;39.25
62599;PMS7003;48671;48.922;2.346;2023-05-18T09:13:26;102.00;100.25;71.50
62599;PMS7003;48671;48.922;2.346;2023-05-18T09:15:53;89.50;84.50;52.50
62599;PMS7003;48671;48.922;2.346;2023-05-18T09:18:19;98.75;93.25;59.75
62599;PMS7003;48671;48.922;2.346;2023-05-18T09:20:45;104.75;95.00;61.50
62599;PMS7003;48671;48.922;2.346;2023-05-18T09:23:10;109.00;100.25;72.00
62599;PMS7003;48671;48.922;2.346;2023-05-18T09:25:39;102.20;98.60;65.60
62599;PMS7003;48671;48.922;2.346;2023-05-18T09:28:08;106.50;101.75;74.50
62599;PMS7003;48671;48.922;2.346;2023-05-18T09:30:41;97.00;96.75;68.25
62599;PMS7003;48671;48.922;2.346;2023-05-18T09:33:19;107.75;102.50;73.75
62599;PMS7003;48671;48.922;2.346;2023-05-18T09:35:48;102.80;100.20;73.40
62599;PMS7003;48671;48.922;2.346;2023-05-18T09:38:15;106.75;102.25;73.75
62599;PMS7003;48671;48.922;2.346;2023-05-18T09:40:45;105.50;101.25;69.75
62599;PMS7003;48671;48.922;2.346;2023-05-18T09:43:12;106.50;100.25;64.50
62599;PMS7003;48671;48.922;2.346;2023-05-18T09:45:41;102.25;99.50;64.75
62599;PMS7003;48671;48.922;2.346;2023-05-18T09:48:08;104.25;100.75;68.00
62599;PMS7003;48671;48.922;2.346;2023-05-18T09:50:35;109.75;102.75;73.00
62599;PMS7003;48671;48.922;2.346;2023-05-18T09:53:01;84.50;80.25;50.50
62599;PMS7003;48671;48.922;2.346;2023-05-18T09:55:30;99.40;98.80;70.20
62599;PMS7003;48671;48.922;2.346;2023-05-18T09:57:55;103.25;100.25;68.75
62599;PMS7003;48671;48.922;2.346;2023-05-18T10:00:47;99.75;97.25;68.75
62599;PMS7003;48671;48.922;2.346;2023-05-18T10:03:21;85.25;77.00;46.25
62599;PMS7003;48671;48.922;2.346;2023-05-18T10:05:48;102.25;99.75;68.75
62599;PMS7003;48671;48.922;2.346;2023-05-18T10:08:14;99.20;95.00;65.00
62599;PMS7003;48671;48.922;2.346;2023-05-18T10:10:41;96.50;94.50;67.00
62599;PMS7003;48671;48.922;2.346;2023-05-18T10:13:11;102.40;97.40;66.40
62599;PMS7003;48671;48.922;2.346;2023-05-18T10:15:45;104.60;99.40;68.20
62599;PMS7003;48671;48.922;2.346;2023-05-18T10:18:11;103.80;99.40;70.00
62599;PMS7003;48671;48.922;2.346;2023-05-18T10:20:42;104.00;100.50;70.25
62599;PMS7003;48671;48.922;2.346;2023-05-18T10:23:08;103.20;99.80;69.40
62599;PMS7003;48671;48.922;2.346;2023-05-18T10:25:35;112.20;105.40;75.40
62599;PMS7003;48671;48.922;2.346;2023-05-18T10:28:02;104.60;102.20;74.40
62599;PMS7003;48671;48.922;2.346;2023-05-18T10:30:31;86.75;82.00;53.75
62599;PMS7003;48671;48.922;2.346;2023-05-18T10:32:56;105.25;102.25;70.75
62599;PMS7003;48671;48.922;2.346;2023-05-18T10:35:23;88.75;84.75;55.00
62599;PMS7003;48671;48.922;2.346;2023-05-18T10:37:52;107.25;102.50;74.00
62599;PMS7003;48671;48.922;2.346;2023-05-18T10:40:20;99.00;97.00;73.67
62599;PMS7003;48671;48.922;2.346;2023-05-18T10:42:47;106.25;102.75;79.75
62599;PMS7003;48671;48.922;2.346;2023-05-18T10:45:14;106.50;103.75;77.75
62599;PMS7003;48671;48.922;2.346;2023-05-18T10:47:40;98.75;93.75;68.75
62599;PMS7003;48671;48.922;2.346;2023-05-18T10:50:08;94.00;88.67;64.00
62599;PMS7003;48671;48.922;2.346;2023-05-18T10:52:35;92.25;86.50;59.50
62599;PMS7003;48671;48.922;2.346;2023-05-18T10:55:01;82.00;75.80;50.60
62599;PMS7003;48671;48.922;2.346;2023-05-18T10:57:29;89.50;85.25;57.75
62599;PMS7003;48671;48.922;2.346;2023-05-18T10:59:59;91.20;83.60;57.00
62599;PMS7003;48671;48.922;2.346;2023-05-18T11:02:24;94.67;88.00;62.00
62599;PMS7003;48671;48.922;2.346;2023-05-18T11:04:52;93.50;87.00;62.75
62599;PMS7003;48671;48.922;2.346;2023-05-18T11:07:18;89.00;87.00;59.25
62599;PMS7003;48671;48.922;2.346;2023-05-18T11:09:46;90.00;81.40;55.60
62599;PMS7003;48671;48.922;2.346;2023-05-18T11:12:13;82.20;73.60;46.60
62599;PMS7003;48671;48.922;2.346;2023-05-18T11:14:49;107.40;98.20;72.00
62599;PMS7003;48671;48.922;2.346;2023-05-18T11:17:16;96.33;91.67;64.67
62599;PMS7003;48671;48.922;2.346;2023-05-18T11:23:03;96.25;88.00;54.50
62599;PMS7003;48671;48.922;2.346;2023-05-18T11:27:52;95.00;82.50;53.00
62599;PMS7003;48671;48.922;2.346;2023-05-18T11:32:52;102.25;90.50;55.50
62599;PMS7003;48671;48.922;2.346;2023-05-18T11:35:53;103.60;91.80;57.60
62599;PMS7003;48671;48.922;2.346;2023-05-18T11:38:20;105.00;93.00;62.00
62599;PMS7003;48671;48.922;2.346;2023-05-18T11:40:47;105.25;93.50;61.00
62599;PMS7003;48671;48.922;2.346;2023-05-18T11:43:18;100.75;90.25;61.25
62599;PMS7003;48671;48.922;2.346;2023-05-18T11:45:52;102.20;90.60;64.20
62599;PMS7003;48671;48.922;2.346;2023-05-18T11:48:22;103.00;91.00;65.25
62599;PMS7003;48671;48.922;2.346;2023-05-18T11:50:57;101.00;89.00;65.50
62599;PMS7003;48671;48.922;2.346;2023-05-18T11:53:23;103.75;91.50;69.50
62599;PMS7003;48671;48.922;2.346;2023-05-18T11:55:53;96.75;83.25;64.00
62599;PMS7003;48671;48.922;2.346;2023-05-18T11:58:20;94.25;82.50;65.00
62599;PMS7003;48671;48.922;2.346;2023-05-18T12:00:48;100.00;88.25;68.75
62599;PMS7003;48671;48.922;2.346;2023-05-18T12:03:15;91.75;79.25;66.75
62599;PMS7003;48671;48.922;2.346;2023-05-18T12:05:41;90.75;78.50;68.25
62599;PMS7003;48671;48.922;2.346;2023-05-18T12:08:14;91.67;80.00;70.00
62599;PMS7003;48671;48.922;2.346;2023-05-18T12:10:43;88.25;75.75;69.50
62599;PMS7003;48671;48.922;2.346;2023-05-18T12:13:15;86.00;72.00;63.50
62599;PMS7003;48671;48.922;2.346;2023-05-18T12:15:42;80.80;68.20;58.80
62599;PMS7003;48671;48.922;2.346;2023-05-18T12:18:09;74.00;66.25;58.75
62599;PMS7003;48671;48.922;2.346;2023-05-18T12:20:37;80.60;69.40;63.60
62599;PMS7003;48671;48.922;2.346;2023-05-18T12:23:03;94.33;82.00;76.33
62599;PMS7003;48671;48.922;2.346;2023-05-18T12:25:29;81.67;70.00;65.00
62599;PMS7003;48671;48.922;2.346;2023-05-18T12:27:55;84.00;73.33;69.00
62599;PMS7003;48671;48.922;2.346;2023-05-18T12:30:21;86.33;75.00;69.00
62599;PMS7003;48671;48.922;2.346;2023-05-18T12:33:10;87.67;76.33;71.00
62599;PMS7003;48671;48.922;2.346;2023-05-18T12:35:45;88.00;75.00;67.00
62599;PMS7003;48671;48.922;2.346;2023-05-18T12:38:10;86.67;74.00;67.00
62599;PMS7003;48671;48.922;2.346;2023-05-18T12:40:36;89.00;76.67;69.00
62599;PMS7003;48671;48.922;2.346;2023-05-18T12:43:10;88.75;77.25;67.25
62599;PMS7003;48671;48.922;2.346;2023-05-18T12:45:39;92.40;80.20;68.00
62599;PMS7003;48671;48.922;2.346;2023-05-18T12:48:05;83.50;72.75;60.75
62599;PMS7003;48671;48.922;2.346;2023-05-18T12:50:44;94.25;82.50;67.25
62599;PMS7003;48671;48.922;2.346;2023-05-18T12:53:56;93.75;81.00;64.25
62599;PMS7003;48671;48.922;2.346;2023-05-18T12:59:48;83.00;67.75;64.00
62599;PMS7003;48671;48.922;2.346;2023-05-18T13:18:44;97.40;84.20;69.20
62599;PMS7003;48671;48.922;2.346;2023-05-18T13:27:58;89.00;86.50;72.00
62599;PMS7003;48671;48.922;2.346;2023-05-18T13:30:27;73.60;67.60;52.80
62599;PMS7003;48671;48.922;2.346;2023-05-18T13:32:53;81.75;81.75;66.75
62599;PMS7003;48671;48.922;2.346;2023-05-18T13:35:24;78.60;77.40;63.20
62599;PMS7003;48671;48.922;2.346;2023-05-18T13:37:53;94.60;84.00;69.20
62599;PMS7003;48671;48.922;2.346;2023-05-18T13:40:28;89.80;77.20;62.80
62599;PMS7003;48671;48.922;2.346;2023-05-18T13:43:03;84.20;82.80;70.40
62599;PMS7003;48671;48.922;2.346;2023-05-18T13:49:02;83.20;81.80;67.80
62599;PMS7003;48671;48.922;2.346;2023-05-18T13:54:48;83.80;83.40;74.40
62599;PMS7003;48671;48.922;2.346;2023-05-18T13:57:27;78.00;74.75;68.50
62599;PMS7003;48671;48.922;2.346;2023-05-18T14:00:44;89.00;87.75;81.50
62599;PMS7003;48671;48.922;2.346;2023-05-18T14:03:31;85.00;84.75;79.00
62599;PMS7003;48671;48.922;2.346;2023-05-18T14:06:42;80.20;77.60;74.00
62599;PMS7003;48671;48.922;2.346;2023-05-18T14:09:44;84.20;82.60;72.80
62599;PMS7003;48671;48.922;2.346;2023-05-18T14:24:42;77.50;73.25;70.00
62599;PMS7003;48671;48.922;2.346;2023-05-18T14:27:11;72.50;63.50;56.75
62599;PMS7003;48671;48.922;2.346;2023-05-18T14:38:07;77.75;73.25;70.25
62599;PMS7003;48671;48.922;2.346;2023-05-18T14:40:32;84.00;82.25;79.50
62599;PMS7003;48671;48.922;2.346;2023-05-18T14:42:58;80.67;80.00;75.33
62599;PMS7003;48671;48.922;2.346;2023-05-18T14:45:23;83.50;80.50;76.00
62599;PMS7003;48671;48.922;2.346;2023-05-18T14:47:49;73.50;65.75;61.75
62599;PMS7003;48671;48.922;2.346;2023-05-18T14:50:15;76.75;73.25;69.00
62599;PMS7003;48671;48.922;2.346;2023-05-18T14:52:40;74.50;68.50;65.75
62599;PMS7003;48671;48.922;2.346;2023-05-18T14:55:06;81.00;80.50;76.50
62599;PMS7003;48671;48.922;2.346;2023-05-18T14:57:32;78.25;74.25;70.50
62599;PMS7003;48671;48.922;2.346;2023-05-18T15:00:17;77.00;70.50;67.25